Con. actuales
Fog
Conditions



PressiĆ³n:
1021.92 (hPa) - 30.18 (inHG)
Visibilidad:

0.5 (km) - 0.3 (miles)
Base de Nubes

30 (Mts) - 100 (Feets)
   Temperatura
0  °C
Temperatura
0  °C
100  %
 Humedad
   Velocidad del Viento
0  km/h
0  kts
0  mph
0  m/s
   Wind Direction
N
45°
E
90°
135°
S
180°
225°
O
270°
315°
Calma

Del   Norte
   Airport Data
SAEZ
Ministro Pistarini International Airport
Metar :SAEZ 190800Z 00000KT 0500 R11/0250N FG FEW001 00/00 Q1022 NOSIG RMK PP000
Thu 19th May 05:00 am
   Raw Metar Info
Raw METAR is the most common format in the world for the transmission of observational weather data. It is highly standardized through the International Civil Aviation Organization (ICAO), which allows it to be understood throughout most of the world.
   API Info
Data Provided by
https://www.checkwx.com/weather/SAEZ

Aviation Weather providing METAR, TAF, AIRMET, SIGMET and OUTLOOK Weather Reports
   © Info
CSS/SVG/PHP scripts were developed by weather34.com for use in the weather34 template © 2015-2022

Guide Info provided by Metar-Wikipedia